Time;durP1;ratioP1;P1;durP2;ratioP2;P2;SDS_P1;SDS_P2;PMS_P1;PMS_P2;Temp;Humidity;BMP_temperature;BMP_pressure;BME280_temperature;BME280_humidity;BME280_pressure;Samples;Min_cycle;Max_cycle;Signal;HPM_P1;HPM_P2
2022/04/15 00:00:56;;;;;;;3.93;1.57;;;17.80;65.80;;;18.31;45.31;99181.03;4953333;28;119668;-92
2022/04/15 00:03:23;;;;;;;1.30;1.20;;;17.80;66.00;;;18.30;45.16;99179.41;4952495;28;118802;-91
2022/04/15 00:09:33;;;;;;;1.47;1.33;;;17.80;66.00;;;18.25;45.26;99183.28;4940082;28;124266;-92
2022/04/15 00:12:40;;;;;;;2.30;1.60;;;17.70;66.20;;;18.21;45.47;99193.53;4935323;28;119442;-91
2022/04/15 00:15:07;;;;;;;2.10;1.90;;;17.70;66.20;;;18.21;45.62;99189.91;4933289;28;119754;-93
2022/04/15 00:21:15;;;;;;;3.40;1.50;;;17.70;66.40;;;18.16;45.63;99201.34;4934613;28;124833;-92
2022/04/15 00:24:06;;;;;;;1.40;1.23;;;17.60;66.50;;;18.16;45.60;99195.75;4935885;28;120026;-93
2022/04/15 00:27:29;;;;;;;1.40;1.30;;;17.60;66.60;;;18.13;45.83;99202.06;4937311;28;119724;-92
2022/04/15 00:33:37;;;;;;;2.07;1.40;;;17.60;66.80;;;18.08;45.91;99201.16;4938318;28;124886;-91
2022/04/15 00:39:46;;;;;;;1.60;1.40;;;17.50;66.90;;;18.05;45.87;99193.47;4937954;28;119962;-93
2022/04/15 00:46:04;;;;;;;1.50;1.40;;;17.50;67.10;;;18.02;45.88;99194.16;4937445;28;124749;-90
2022/04/15 00:52:14;;;;;;;1.50;1.40;;;17.50;67.30;;;17.96;46.28;99201.16;4937926;28;119576;-92
2022/04/15 00:58:25;;;;;;;1.80;1.70;;;17.40;67.50;;;17.94;46.40;99199.88;4937557;28;124809;-92
2022/04/15 01:04:40;;;;;;;1.70;1.40;;;17.40;67.80;;;17.92;46.50;99194.66;4936944;28;120987;-83
2022/04/15 01:10:52;;;;;;;1.70;1.37;;;17.40;68.00;;;17.86;46.62;99210.84;4918941;28;124765;-83
2022/04/15 01:17:01;;;;;;;1.33;1.17;;;17.30;68.20;;;17.85;46.86;99205.59;4919024;28;120041;-87
2022/04/15 01:23:11;;;;;;;2.27;1.50;;;17.30;68.40;;;17.82;46.90;99198.75;4918474;28;124847;-92
2022/04/15 01:33:03;;;;;;;1.90;1.53;;;17.30;68.80;;;17.81;47.05;99213.06;4935226;28;124447;-92
2022/04/15 01:39:11;;;;;;;1.47;1.37;;;17.20;68.90;;;17.78;47.09;99214.53;4941098;28;120185;-91
2022/04/15 01:45:20;;;;;;;2.07;1.60;;;17.20;69.10;;;17.78;47.20;99213.72;4973759;28;125103;-92
2022/04/15 01:51:35;;;;;;;1.77;1.47;;;17.20;69.30;;;17.75;47.23;99208.84;4979986;28;120383;-88
2022/04/15 01:57:43;;;;;;;2.10;1.50;;;17.20;69.60;;;17.71;47.47;99219.09;4979757;28;125392;-79
2022/04/15 02:02:46;;;;;;;2.50;1.67;;;17.20;69.80;;;17.72;47.39;99215.13;5611071;23;98312;-84
2022/04/15 02:05:15;;;;;;;2.23;1.73;;;17.20;69.90;;;17.72;47.64;99212.34;4904637;28;120605;-93
2022/04/15 02:11:23;;;;;;;1.97;1.77;;;17.10;69.90;;;17.67;47.74;99216.97;4921004;28;124815;-92
2022/04/15 02:17:32;;;;;;;2.60;1.80;;;17.10;70.10;;;17.64;47.81;99219.69;4920111;28;119878;-85
2022/04/15 02:23:41;;;;;;;2.03;1.80;;;17.10;70.30;;;17.59;47.95;99220.72;4921689;28;124801;-90
2022/04/15 02:29:49;;;;;;;1.93;1.57;;;17.00;70.30;;;17.55;48.01;99224.56;4921467;28;120014;-75
2022/04/15 02:35:58;;;;;;;1.70;1.60;;;17.00;70.60;;;17.49;48.12;99229.56;4921341;28;124809;-77
2022/04/15 02:42:08;;;;;;;2.20;2.00;;;16.90;70.70;;;17.43;48.26;99226.16;4921175;28;120032;-82
2022/04/15 02:48:16;;;;;;;1.77;1.67;;;16.90;71.00;;;17.36;48.68;99225.94;4920516;28;124755;-74
2022/04/15 02:54:24;;;;;;;2.10;1.90;;;16.80;71.10;;;17.32;48.62;99229.78;4921519;28;119901;-74
2022/04/15 03:16:25;;;;;;;2.17;1.80;;;16.70;71.80;;;17.20;48.90;99220.22;4920919;28;120281;-75
2022/04/15 03:22:40;;;;;;;1.70;1.40;;;16.60;72.00;;;17.15;49.02;99222.44;4920692;28;125066;-79
2022/04/15 03:28:49;;;;;;;2.43;1.90;;;16.50;72.10;;;17.11;49.27;99227.88;4920672;28;120297;-75
2022/04/15 03:34:57;;;;;;;1.60;1.50;;;16.60;72.40;;;17.07;49.03;99226.94;4920139;28;125051;-75
2022/04/15 03:41:07;;;;;;;2.70;1.83;;;16.40;72.50;;;17.03;49.44;99228.78;4920274;28;120341;-75
2022/04/15 03:47:16;;;;;;;1.73;1.63;;;16.40;72.80;;;16.99;49.33;99227.84;4920353;28;125117;-78
2022/04/15 03:53:24;;;;;;;1.80;1.70;;;16.60;73.10;;;16.97;49.38;99241.34;4920067;28;120269;-76
2022/04/15 04:21:54;;;;;;;2.90;1.90;;;16.20;73.80;;;16.75;49.83;99246.13;6044017;23;98959;31
2022/04/15 04:28:08;;;;;;;2.60;2.17;;;16.30;74.00;;;16.67;49.99;99262.94;4919693;28;120389;-84
2022/04/15 04:34:16;;;;;;;2.07;1.87;;;16.10;74.00;;;16.57;50.26;99267.75;4918964;28;125098;-87
2022/04/15 04:40:25;;;;;;;2.40;2.10;;;16.00;74.20;;;16.54;50.22;99273.22;4919329;28;120413;-89
2022/04/15 04:46:35;;;;;;;3.20;2.23;;;16.00;74.50;;;16.46;50.53;99283.28;4919392;28;125151;-84
2022/04/15 04:52:46;;;;;;;1.97;1.80;;;16.00;74.80;;;16.41;50.78;99274.31;4919211;28;120435;-91
2022/04/15 05:01:31;;;;;;;4.40;1.87;;;15.80;75.20;;;16.38;50.83;99288.94;5615468;23;100053;-82
2022/04/15 05:07:40;;;;;;;2.40;1.70;;;15.80;75.40;;;16.37;50.78;99287.31;4938662;28;121010;-75
2022/04/15 05:13:50;;;;;;;2.30;1.73;;;15.70;75.60;;;16.38;51.09;99286.13;4941479;28;124608;-85
2022/04/15 05:19:59;;;;;;;2.40;2.10;;;15.80;76.00;;;16.38;51.04;99294.50;4941762;28;119874;-86
2022/04/15 05:26:07;;;;;;;1.70;1.50;;;15.80;76.20;;;16.38;51.27;99305.66;4941795;28;124744;-90
2022/04/15 05:32:18;;;;;;;1.80;1.70;;;13.00;73.70;;;16.39;51.13;99316.50;4941519;28;121744;-77
2022/04/15 05:38:26;;;;;;;2.60;1.77;;;15.80;76.40;;;16.44;50.97;99318.25;4941351;28;124617;-78
2022/04/15 05:44:56;;;;;;;2.40;1.90;;;15.90;76.50;;;16.53;50.88;99324.59;4921938;28;120078;-90
2022/04/15 05:51:05;;;;;;;2.37;1.80;;;15.90;76.50;;;16.63;50.69;99324.19;4926658;28;124744;-93
2022/04/15 05:57:19;;;;;;;3.10;2.20;;;16.00;76.60;;;16.70;50.83;99338.41;4939696;28;119960;-92
2022/04/15 06:00:42;;;;;;;2.10;1.77;;;16.00;76.50;;;16.73;50.77;99342.47;4937740;28;123694;-90
2022/04/15 06:03:38;;;;;;;2.10;1.80;;;16.10;76.50;;;16.76;50.70;99342.63;4898376;28;123192;-79
2022/04/15 06:06:24;;;;;;;2.60;2.17;;;16.10;76.50;;;16.80;50.64;99339.19;4882526;28;120867;-87
2022/04/15 06:13:00;;;;;;;3.27;2.63;;;16.20;76.40;;;16.74;50.62;99339.38;4916073;28;125077;-87
2022/04/15 06:19:06;;;;;;;2.80;2.60;;;16.10;76.40;;;16.73;51.20;99348.88;4909747;28;120233;-92
2022/04/15 06:25:16;;;;;;;3.80;2.90;;;16.20;77.10;;;16.83;51.04;99344.09;4908809;28;125108;-93
2022/04/15 06:28:41;;;;;;;3.47;2.90;;;16.20;77.40;;;16.89;51.19;99345.50;4899984;28;123096;-91
2022/04/15 06:35:11;;;;;;;3.50;2.53;;;16.40;77.90;;;17.09;51.01;99344.69;4918006;28;120041;-92
2022/04/15 06:37:41;;;;;;;2.80;2.60;;;16.50;77.70;;;17.19;50.91;99349.84;4913986;28;123702;-94
2022/04/15 06:40:09;;;;;;;2.63;2.43;;;16.60;78.10;;;17.33;50.77;99343.13;4882975;28;122921;-93
2022/04/15 06:43:33;;;;;;;3.77;3.23;;;16.50;77.80;;;17.41;50.47;99353.41;4897877;28;119506;-93
2022/04/15 06:46:02;;;;;;;6.27;3.30;;;16.80;77.40;;;17.44;50.44;99347.13;4902150;28;117787;-93
2022/04/15 06:48:31;;;;;;;4.30;3.30;;;16.70;77.60;;;17.50;50.49;99345.75;4902149;28;124510;-94
2022/04/15 06:50:58;;;;;;;3.27;2.60;;;16.80;77.50;;;17.61;50.20;99348.91;4881390;28;123161;-92
2022/04/15 06:53:43;;;;;;;3.67;3.37;;;16.90;78.60;;;17.72;50.16;99349.28;4905015;28;119616;-93
2022/04/15 06:56:11;;;;;;;5.77;3.83;;;17.00;77.90;;;17.79;50.03;99343.97;4873137;28;117216;-92
2022/04/15 06:58:58;;;;;;;6.30;3.77;;;17.20;77.70;;;17.87;50.11;99357.03;4884904;28;124888;-94
2022/04/15 07:01:24;;;;;;;6.13;4.30;;;17.20;77.10;;;17.91;50.00;99346.78;4899487;28;124413;-94
2022/04/15 07:04:09;;;;;;;3.97;3.57;;;17.30;77.00;;;17.98;49.78;99352.63;4927653;28;120369;-91
2022/04/15 07:07:15;;;;;;;5.40;3.87;;;17.30;76.80;;;18.03;49.81;99346.78;4918011;28;119598;-94
2022/04/15 07:09:50;;;;;;;5.00;3.93;;;17.40;76.80;;;18.07;49.72;99344.91;4909210;28;124909;-93
2022/04/15 07:12:19;;;;;;;4.60;3.80;;;17.40;76.60;;;18.15;49.56;99348.75;4907810;28;123446;-94
2022/04/15 07:18:27;;;;;;;4.73;4.10;;;17.60;76.50;;;18.35;49.25;99351.78;4921873;28;119241;-92
2022/04/15 07:20:54;;;;;;;6.00;4.37;;;17.70;76.50;;;18.44;49.23;99350.50;4912428;28;123542;-92
2022/04/15 07:23:41;;;;;;;5.60;3.97;;;17.80;76.50;;;18.49;48.79;99350.25;4913945;28;123128;-92
2022/04/15 07:26:09;;;;;;;4.03;3.37;;;17.80;76.20;;;18.54;49.06;99347.22;4920664;28;118987;-92
2022/04/15 07:28:56;;;;;;;7.60;3.80;;;17.90;76.20;;;18.63;48.84;99354.69;4908424;28;118971;-92
2022/04/15 07:32:21;;;;;;;7.17;4.67;;;18.00;76.10;;;18.68;48.62;99354.44;4897083;28;122042;-92
2022/04/15 07:34:49;;;;;;;8.03;5.20;;;18.10;75.90;;;18.70;48.60;99361.31;4905568;28;123108;-92
2022/04/15 07:40:58;;;;;;;6.57;5.20;;;18.10;75.60;;;18.84;48.37;99354.53;4914970;28;119964;-93
2022/04/15 07:43:47;;;;;;;6.93;5.80;;;18.20;75.60;;;18.88;48.22;99355.44;4913570;28;123507;-93
2022/04/15 07:46:16;;;;;;;5.87;5.27;;;18.20;75.30;;;18.94;48.20;99356.81;4920443;28;123021;-92
2022/04/15 07:52:25;;;;;;;5.90;4.67;;;18.30;75.00;;;19.07;47.94;99350.00;4910950;28;119546;-92
2022/04/15 07:54:51;;;;;;;6.20;5.20;;;18.40;74.80;;;19.16;47.79;99355.50;4913901;28;123487;-86
2022/04/15 07:57:18;;;;;;;8.57;5.57;;;18.40;74.70;;;19.24;47.64;99354.53;4932487;28;124633;-93
2022/04/15 08:00:04;;;;;;;8.27;5.37;;;18.50;74.50;;;19.30;47.22;99355.06;4921462;28;121058;-92
2022/04/15 08:02:30;;;;;;;6.03;4.77;;;16.00;71.80;;;19.40;47.32;99354.56;4914404;28;119500;-92
2022/04/15 08:04:57;;;;;;;8.57;6.47;;;18.70;74.30;;;19.47;46.75;99354.75;4913477;28;123246;-93
2022/04/15 08:08:21;;;;;;;9.20;7.90;;;18.80;73.80;;;19.45;46.54;99350.66;4909827;28;122959;-91
2022/04/15 08:10:50;;;;;;;13.40;8.97;;;18.80;72.90;;;19.41;46.32;99345.78;4913119;28;118889;-93
2022/04/15 08:13:57;;;;;;;7.20;6.47;;;18.80;72.50;;;19.40;46.35;99351.75;4922014;28;119345;-93
2022/04/15 08:16:25;;;;;;;6.10;5.10;;;18.80;72.60;;;19.51;46.41;99360.47;4898116;28;122194;-94
2022/04/15 08:18:54;;;;;;;6.40;5.30;;;18.90;72.80;;;19.61;46.20;99351.50;4917376;28;123197;-94
2022/04/15 08:21:22;;;;;;;7.30;6.60;;;18.90;72.60;;;19.68;45.87;99350.94;4909961;28;119188;-92
2022/04/15 08:23:50;;;;;;;8.60;7.00;;;19.00;72.20;;;19.75;45.79;99351.13;4918474;28;118047;-93
2022/04/15 08:26:16;;;;;;;7.47;5.63;;;19.10;72.10;;;19.81;45.82;99355.28;4912283;28;124083;-95
2022/04/15 08:28:45;;;;;;;5.53;4.80;;;19.10;72.10;;;19.89;45.55;99359.09;4902579;28;123167;-93
2022/04/15 08:31:51;;;;;;;13.17;7.97;;;19.20;72.10;;;19.92;45.53;99350.75;4919050;28;119434;-93
2022/04/15 08:34:36;;;;;;;8.53;6.83;;;19.30;71.40;;;19.99;45.08;99356.56;4918526;28;118234;-92
2022/04/15 08:37:04;;;;;;;10.30;6.47;;;19.40;71.30;;;20.05;45.06;99362.72;4900715;28;123602;-93
2022/04/15 08:40:27;;;;;;;9.50;7.40;;;19.40;71.10;;;20.03;44.71;99354.66;4911800;28;123412;-93
2022/04/15 08:43:04;;;;;;;8.80;7.50;;;19.50;70.30;;;20.04;44.27;99355.44;4908568;28;118022;-93
2022/04/15 08:45:32;;;;;;;8.90;6.40;;;19.50;70.00;;;20.02;44.33;99357.81;4903292;28;118454;-94
2022/04/15 08:48:04;;;;;;;13.50;10.37;;;19.50;69.70;;;19.97;43.94;99355.28;4896870;28;123819;-93
2022/04/15 08:50:31;;;;;;;9.13;7.90;;;19.50;68.60;;;19.96;43.82;99356.44;4911225;28;123450;-93
2022/04/15 08:53:00;;;;;;;14.60;11.10;;;19.40;68.70;;;19.97;43.65;99356.09;4894800;28;118964;-93
2022/04/15 08:56:25;;;;;;;11.93;9.80;;;19.50;68.40;;;19.95;44.05;99363.25;4912497;28;120047;-93
2022/04/15 09:03:10;;;;;;;9.00;7.90;;;19.50;68.60;;;20.01;43.83;99361.78;4929684;28;125183;-93
2022/04/15 09:05:38;;;;;;;8.33;6.80;;;19.50;68.50;;;20.03;44.05;99373.47;4914246;28;118755;-94
2022/04/15 09:08:08;;;;;;;8.73;7.33;;;19.50;68.60;;;20.09;43.99;99360.78;4912636;28;118274;-94
2022/04/15 09:10:36;;;;;;;12.17;8.60;;;19.50;68.60;;;20.18;43.64;99364.25;4908056;28;123310;-94
2022/04/15 09:16:47;;;;;;;15.00;11.80;;;19.70;67.60;;;20.18;42.92;99371.84;4937454;28;119603;-93
2022/04/15 09:19:15;;;;;;;12.33;10.97;;;19.60;66.80;;;20.15;42.34;99380.97;4934242;28;118846;-93
2022/04/15 09:21:54;;;;;;;10.17;8.53;;;19.60;66.40;;;20.16;42.84;99375.00;4918936;28;124487;-92
2022/04/15 09:24:42;;;;;;;10.10;8.70;;;19.70;66.80;;;20.22;42.57;99373.53;4917837;28;123343;-93
2022/04/15 09:27:08;;;;;;;11.37;8.87;;;19.70;66.80;;;20.29;42.38;99367.31;4916699;28;119078;-93
2022/04/15 09:29:40;;;;;;;9.63;8.60;;;19.70;66.60;;;20.34;42.65;99374.63;4901007;28;117496;-93
2022/04/15 09:32:44;;;;;;;12.73;9.83;;;19.70;66.50;;;20.34;42.44;99380.22;4920785;28;123667;-93
2022/04/15 09:35:16;;;;;;;10.23;8.90;;;19.80;66.30;;;20.38;42.50;99369.91;4936279;28;123363;-93
2022/04/15 09:37:44;;;;;;;13.50;9.93;;;19.80;66.80;;;20.40;41.95;99379.59;4910701;28;119048;-93
2022/04/15 09:40:18;;;;;;;10.63;8.70;;;19.80;65.90;;;20.40;42.33;99373.19;4900960;28;117254;-94
2022/04/15 09:42:57;;;;;;;8.87;7.37;;;19.80;65.70;;;20.40;42.09;99378.78;4914698;28;123484;-93
2022/04/15 09:45:33;;;;;;;11.13;8.53;;;19.90;65.50;;;20.40;41.74;99379.59;4926779;28;123805;-92
2022/04/15 09:48:08;;;;;;;11.10;9.57;;;19.90;65.10;;;20.40;41.51;99376.00;4901263;28;120110;-93
2022/04/15 09:50:38;;;;;;;11.03;9.33;;;19.90;64.60;;;20.39;41.37;99378.00;4901765;28;121183;-93
2022/04/15 09:53:14;;;;;;;9.50;6.53;;;19.90;64.50;;;20.43;41.71;99378.06;4914513;28;123111;-94
2022/04/15 09:55:50;;;;;;;7.50;6.80;;;19.90;64.90;;;20.50;41.45;99373.44;4914105;28;121766;-93
2022/04/15 09:58:31;;;;;;;8.70;7.43;;;20.00;65.00;;;20.55;41.66;99380.78;4912567;28;118997;-92
2022/04/15 10:01:17;;;;;;;7.70;6.83;;;20.00;64.70;;;20.58;41.00;99380.06;4888609;28;117921;-93
2022/04/15 10:04:05;;;;;;;12.47;8.80;;;20.00;64.20;;;20.62;41.02;99372.53;4908445;28;123788;-92
2022/04/15 10:06:54;;;;;;;9.30;7.33;;;20.10;64.30;;;20.63;40.80;99376.97;4909034;28;122916;-93
2022/04/15 10:10:00;;;;;;;7.53;6.83;;;20.00;64.10;;;20.60;41.35;99372.06;4898199;28;120025;-93
2022/04/15 10:12:29;;;;;;;9.80;8.20;;;20.20;64.00;;;20.64;41.21;99372.97;4916929;28;117078;-94
2022/04/15 10:14:59;;;;;;;8.37;7.13;;;20.10;63.90;;;20.67;40.82;99360.22;4915234;28;123372;-92
2022/04/15 10:17:46;;;;;;;9.43;7.10;;;20.10;63.90;;;20.73;41.23;99379.19;4900200;28;123987;-93
2022/04/15 10:20:13;;;;;;;12.07;8.50;;;20.20;64.00;;;20.78;40.86;99366.06;4898771;28;119188;-92
2022/04/15 10:22:41;;;;;;;8.67;7.20;;;20.20;63.70;;;20.78;40.52;99377.28;4896971;28;119217;-93
2022/04/15 10:25:09;;;;;;;8.90;8.00;;;20.20;63.60;;;20.80;40.69;99370.13;4912439;28;124464;-92
2022/04/15 10:28:36;;;;;;;8.00;7.20;;;20.30;63.60;;;20.78;40.58;99366.88;4925010;28;123289;-92
2022/04/15 10:31:24;;;;;;;11.03;9.73;;;20.30;63.00;;;20.74;40.02;99360.38;4945393;28;119110;-93
2022/04/15 10:33:51;;;;;;;11.63;8.40;;;20.30;62.50;;;20.70;40.48;99359.47;4918459;28;118224;-92
2022/04/15 10:36:25;;;;;;;9.97;8.47;;;20.20;62.60;;;20.65;40.03;99354.94;4921478;28;123617;-92
2022/04/15 10:39:12;;;;;;;7.77;6.97;;;20.20;62.30;;;20.60;40.71;99357.22;4919794;28;123222;-94
2022/04/15 10:45:35;;;;;;;7.13;5.10;;;20.20;62.30;;;20.73;40.46;99362.34;4920894;28;120509;-93
2022/04/15 10:48:04;;;;;;;7.57;6.00;;;20.20;62.40;;;20.82;39.78;99348.13;4886889;28;123247;-93
2022/04/15 10:50:34;;;;;;;5.40;4.90;;;20.30;62.10;;;20.90;39.96;99368.72;4931323;28;123969;-94
2022/04/15 10:53:26;;;;;;;5.30;4.80;;;20.40;62.10;;;21.01;40.00;99354.91;4934727;28;118689;-93
2022/04/15 10:55:52;;;;;;;4.00;3.60;;;20.50;62.00;;;21.08;40.16;99357.88;4920205;28;118172;-94
2022/04/15 10:58:21;;;;;;;6.70;6.00;;;20.50;62.20;;;21.13;39.41;99349.97;4915874;28;124169;-94
2022/04/15 11:01:25;;;;;;;11.30;7.23;;;20.60;61.70;;;21.12;39.14;99353.97;4915003;28;123625;-93
2022/04/15 11:04:04;;;;;;;7.67;5.90;;;20.60;60.90;;;21.15;39.12;99356.03;4879067;28;119941;-93
2022/04/15 11:06:31;;;;;;;7.27;5.40;;;20.60;61.10;;;21.21;38.97;99364.16;4895548;28;117960;-93
2022/04/15 11:09:14;;;;;;;4.97;4.47;;;20.60;60.90;;;21.25;38.70;99356.59;4896238;28;123828;-93
2022/04/15 11:11:45;;;;;;;4.33;3.90;;;20.70;60.00;;;21.28;38.86;99364.28;4895109;28;123974;-93
2022/04/15 11:14:34;;;;;;;3.37;3.07;;;20.80;60.20;;;21.28;38.77;99364.28;4913074;28;119312;-95
2022/04/15 11:17:02;;;;;;;3.23;2.93;;;20.80;59.90;;;21.33;38.71;99358.38;4898766;28;117208;-92
2022/04/15 11:19:33;;;;;;;2.67;2.47;;;20.80;59.80;;;21.43;38.59;99363.44;4910906;28;123265;-93
2022/04/15 11:22:42;;;;;;;3.50;3.13;;;20.90;59.90;;;21.51;38.38;99359.56;4910788;28;123708;-93
2022/04/15 11:25:12;;;;;;;6.67;5.50;;;20.90;59.30;;;21.55;37.74;99360.47;4895694;28;117490;-93
2022/04/15 11:27:41;;;;;;;9.57;7.00;;;21.00;58.60;;;21.55;37.03;99343.59;4883693;28;118439;-94
2022/04/15 11:30:13;;;;;;;6.90;5.70;;;21.00;58.10;;;21.55;36.94;99354.84;4912688;28;123365;-95
2022/04/15 11:33:19;;;;;;;6.57;5.27;;;21.00;57.70;;;21.48;37.16;99354.69;4897832;28;123192;-95
2022/04/15 11:35:48;;;;;;;6.07;4.73;;;21.00;57.70;;;21.51;37.44;99348.31;4916354;28;120225;-93
2022/04/15 11:38:17;;;;;;;6.07;4.50;;;21.00;58.10;;;21.52;37.53;99349.97;4903177;28;120199;-94
2022/04/15 11:40:46;;;;;;;4.30;3.80;;;21.00;58.10;;;21.53;37.52;99345.97;4929285;28;124175;-87
2022/04/15 11:43:13;;;;;;;4.87;4.40;;;21.00;58.20;;;21.58;37.56;99348.47;4926535;28;124354;-94
2022/04/15 11:46:41;;;;;;;6.23;3.50;;;21.10;58.20;;;21.67;37.65;99344.59;4906496;28;118971;-94
2022/04/15 11:49:20;;;;;;;9.33;6.63;;;21.10;58.40;;;21.77;37.05;99344.81;4919439;28;118573;-94
2022/04/15 11:51:53;;;;;;;8.90;5.97;;;21.20;58.30;;;21.85;37.41;99337.31;4915256;28;123378;-95
2022/04/15 11:54:30;;;;;;;7.57;5.47;;;21.20;58.00;;;21.97;37.31;99347.53;4913668;28;123083;-94
2022/04/15 11:57:00;;;;;;;6.97;4.97;;;21.30;58.10;;;22.03;37.04;99334.78;4892511;28;117996;-94
2022/04/15 12:00:23;;;;;;;4.83;4.30;;;21.40;58.10;;;22.07;37.07;99335.66;4917295;28;119180;-94
2022/04/15 12:02:59;;;;;;;6.33;5.63;;;21.50;57.80;;;22.15;36.54;99328.97;4904463;28;124631;-94
2022/04/15 12:05:28;;;;;;;5.90;5.00;;;21.60;57.30;;;22.26;36.13;99320.72;4904291;28;123266;-95
2022/04/15 12:07:59;;;;;;;6.97;4.23;;;21.70;56.70;;;22.39;36.18;99324.94;4899459;28;118166;-94
2022/04/15 12:10:47;;;;;;;4.97;3.60;;;21.80;56.70;;;22.53;35.91;99312.25;4916469;28;118100;-96
2022/04/15 12:13:15;;;;;;;7.53;5.43;;;21.90;56.40;;;22.62;35.08;99318.41;4915770;28;124356;-96
2022/04/15 12:16:04;;;;;;;7.17;6.33;;;22.00;55.00;;;22.58;34.73;99326.03;4934111;28;124076;-95
2022/04/15 12:18:30;;;;;;;5.50;5.00;;;22.00;54.50;;;22.55;35.07;99330.41;4903665;28;119550;-94
2022/04/15 12:20:58;;;;;;;7.33;5.80;;;22.00;55.00;;;22.50;35.02;99322.28;4883741;28;118069;-93
2022/04/15 12:23:26;;;;;;;7.70;5.63;;;22.00;54.40;;;22.44;35.19;99318.19;4913352;28;123299;-93
2022/04/15 12:26:09;;;;;;;5.53;4.67;;;22.00;54.10;;;22.40;34.99;99318.09;4914864;28;123024;-96
2022/04/15 12:31:32;;;;;;;8.30;6.07;;;22.00;54.00;;;22.40;34.68;99322.94;4902253;28;120289;-92
2022/04/15 12:34:03;;;;;;;7.60;5.70;;;22.00;54.00;;;22.41;34.73;99311.31;4918451;28;124645;-94
2022/04/15 12:36:45;;;;;;;8.00;5.20;;;22.00;53.90;;;22.43;34.34;99323.00;4916864;28;123994;-92
2022/04/15 12:39:15;;;;;;;6.23;3.80;;;22.00;53.30;;;22.45;34.26;99312.16;4918928;28;118824;-93
2022/04/15 12:41:52;;;;;;;3.97;3.67;;;22.00;53.30;;;22.52;34.29;99307.84;4913251;28;118078;-94
2022/04/15 12:44:29;;;;;;;6.50;4.47;;;22.00;53.00;;;22.60;34.24;99312.38;4905691;28;124727;-94
2022/04/15 12:50:39;;;;;;;5.30;4.07;;;22.20;53.00;;;22.78;33.88;99302.13;4914927;28;119604;-93
2022/04/15 12:53:19;;;;;;;4.50;3.50;;;22.20;52.50;;;22.80;33.64;99305.38;4914340;28;119167;-93
2022/04/15 12:55:47;;;;;;;4.03;3.20;;;22.30;52.20;;;22.81;33.48;99301.41;4908696;28;124693;-96
2022/04/15 12:58:28;;;;;;;5.50;3.73;;;22.30;51.90;;;22.86;33.25;99298.25;4909271;28;123457;-93
2022/04/15 13:00:58;;;;;;;3.03;2.70;;;22.40;51.80;;;22.96;33.54;99296.78;4887227;28;118596;-93
2022/04/15 13:03:31;;;;;;;4.30;3.10;;;22.40;52.00;;;23.08;32.92;99304.97;4910102;28;119225;-95
2022/04/15 13:05:58;;;;;;;5.50;3.80;;;22.50;51.40;;;23.13;32.88;99298.16;4902846;28;124353;-94
2022/04/15 13:08:25;;;;;;;3.60;3.30;;;22.60;51.10;;;23.20;32.37;99289.00;4894830;28;123026;-95
2022/04/15 13:10:54;;;;;;;5.20;3.50;;;22.70;50.70;;;23.28;32.26;99297.16;4890019;28;119526;-95
2022/04/15 13:13:39;;;;;;;5.53;3.23;;;22.70;50.10;;;23.32;31.66;99286.72;4902364;28;118091;-95
2022/04/15 13:16:06;;;;;;;2.07;1.93;;;22.80;48.90;;;23.35;31.78;99285.94;4911599;28;123795;-94
2022/04/15 13:18:34;;;;;;;3.23;2.50;;;22.80;49.60;;;23.41;31.83;99288.44;4891637;28;123346;-94
2022/04/15 13:21:03;;;;;;;4.07;3.50;;;22.90;49.60;;;23.47;30.80;99286.88;4894021;28;120686;-93
2022/04/15 13:23:30;;;;;;;3.23;2.83;;;22.90;48.00;;;23.54;31.39;99287.75;4859012;28;119291;-94
2022/04/15 13:25:57;;;;;;;5.00;3.10;;;23.00;48.60;;;23.72;31.30;99285.16;4907775;28;123906;-92
2022/04/15 13:28:23;;;;;;;5.67;2.97;;;23.10;48.80;;;23.93;31.49;99275.22;4893970;28;122109;-93
2022/04/15 13:30:53;;;;;;;4.83;3.17;;;23.30;49.30;;;24.09;30.89;99287.03;4910794;28;119862;-92
2022/04/15 13:33:20;;;;;;;6.57;4.00;;;23.40;48.30;;;24.23;30.21;99281.50;4898874;28;118713;-94
2022/04/15 13:35:47;;;;;;;3.53;2.60;;;23.50;47.40;;;24.30;30.83;99280.75;4926061;28;123349;-92
2022/04/15 13:38:13;;;;;;;3.30;2.40;;;23.60;48.10;;;24.36;30.55;99296.09;4895682;28;122184;-93
2022/04/15 13:40:44;;;;;;;3.10;2.80;;;23.80;48.20;;;24.37;30.29;99294.13;4910027;28;119116;-92
2022/04/15 13:43:10;;;;;;;6.50;3.17;;;23.80;47.60;;;24.30;30.29;99291.22;4893347;28;119042;-92
2022/04/15 13:45:37;;;;;;;3.73;2.73;;;23.80;47.30;;;24.22;30.78;99293.19;4888388;28;124578;-91
2022/04/15 13:48:04;;;;;;;3.07;2.77;;;23.80;47.40;;;24.18;30.56;99290.34;4907169;28;124548;-92
2022/04/15 13:50:30;;;;;;;4.20;3.33;;;23.80;47.30;;;24.08;30.33;99291.06;4909296;28;118631;-86
2022/04/15 13:58:27;;;;;;;3.13;2.10;;;23.40;46.70;;;24.10;30.67;99280.22;4918182;28;125191;-91
2022/04/15 14:00:54;;;;;;;3.63;2.37;;;23.60;47.20;;;24.19;30.73;99275.03;4903290;28;119725;-89
2022/04/15 14:03:20;;;;;;;2.60;2.40;;;23.70;47.30;;;24.15;30.67;99287.47;4894278;28;118774;-90
2022/04/15 14:05:47;;;;;;;2.77;2.10;;;23.70;47.30;;;24.12;30.78;99289.06;4891660;28;124078;-89
2022/04/15 14:08:13;;;;;;;3.73;2.93;;;23.60;47.30;;;24.06;30.62;99273.72;4909360;28;123598;-88
2022/04/15 14:10:40;;;;;;;3.10;2.30;;;23.60;47.10;;;24.04;30.84;99281.75;4908702;28;120539;-93
2022/04/15 14:13:07;;;;;;;2.47;2.27;;;23.60;47.00;;;24.06;30.69;99285.00;4902473;28;119133;-89
2022/04/15 14:15:34;;;;;;;4.23;2.80;;;23.60;47.20;;;24.12;30.26;99282.63;4893282;28;123140;-88
2022/04/15 14:18:01;;;;;;;3.33;3.03;;;23.60;46.90;;;24.13;30.18;99284.25;4908437;28;123763;-90
2022/04/15 14:20:29;;;;;;;4.07;2.90;;;23.60;46.50;;;24.09;29.88;99281.41;4911356;28;119241;-88
2022/04/15 14:22:56;;;;;;;4.63;2.60;;;23.60;45.90;;;24.07;30.09;99280.16;4912854;28;118430;-89
2022/04/15 14:25:22;;;;;;;3.23;2.10;;;23.60;46.00;;;24.10;29.97;99271.75;4907193;28;124086;-89
2022/04/15 14:27:48;;;;;;;3.87;2.63;;;23.60;46.10;;;24.20;29.99;99273.81;4906275;28;123959;-89
2022/04/15 14:30:15;;;;;;;2.90;2.13;;;23.70;46.20;;;24.29;29.92;99289.59;4907857;28;119270;-89
2022/04/15 14:32:42;;;;;;;2.50;1.83;;;23.70;46.10;;;24.37;29.76;99288.47;4890805;28;118659;-89
2022/04/15 14:35:08;;;;;;;4.63;2.90;;;23.80;46.10;;;24.43;29.40;99284.84;4892034;28;124408;-88
2022/04/15 14:37:37;;;;;;;3.83;2.40;;;23.90;45.80;;;24.49;29.56;99271.19;4907303;28;124391;-89
2022/04/15 14:40:04;;;;;;;2.10;1.90;;;23.90;45.60;;;24.55;29.27;99282.94;4910977;28;119854;-89
2022/04/15 14:42:32;;;;;;;3.40;2.47;;;24.00;45.70;;;24.56;29.46;99282.56;4892355;28;118815;-89
2022/04/15 14:45:00;;;;;;;5.17;3.20;;;24.00;45.40;;;24.54;29.11;99281.31;4909173;28;124008;-89
2022/04/15 14:47:27;;;;;;;3.83;2.50;;;24.10;44.70;;;24.49;29.54;99276.03;4910409;28;124121;-90
2022/04/15 14:49:53;;;;;;;3.80;2.80;;;24.00;44.90;;;24.50;29.46;99272.00;4902438;28;118304;-89
2022/04/15 14:52:20;;;;;;;4.37;2.97;;;24.10;44.80;;;24.56;29.12;99282.56;4908985;28;118858;-90
2022/04/15 14:54:47;;;;;;;3.70;3.03;;;24.10;44.60;;;24.60;28.76;99280.53;4913256;28;124187;-87
2022/04/15 14:57:14;;;;;;;3.37;2.50;;;24.10;44.30;;;24.72;29.03;99267.25;4873328;28;123192;-89
2022/04/15 14:59:41;;;;;;;2.20;1.80;;;24.20;44.80;;;24.91;28.96;99278.28;4907971;28;121798;-89
2022/04/15 15:02:08;;;;;;;2.00;1.80;;;24.30;44.80;;;25.07;28.72;99275.09;4908461;28;119965;-88
2022/04/15 15:04:35;;;;;;;2.40;1.90;;;24.40;44.40;;;25.18;28.37;99278.00;4893721;28;124707;-90
2022/04/15 15:07:02;;;;;;;3.13;2.00;;;24.50;43.80;;;25.24;28.01;99271.53;4907530;28;122917;-90
2022/04/15 15:09:28;;;;;;;2.93;2.47;;;24.70;43.20;;;25.31;27.99;99265.09;4908446;28;119223;-88
2022/04/15 15:11:55;;;;;;;3.53;1.80;;;24.70;42.80;;;25.37;27.43;99271.97;4894071;28;117817;-88
2022/04/15 15:14:22;;;;;;;2.53;1.87;;;24.80;42.60;;;25.48;27.47;99267.16;4875514;28;122255;-87